Time;durP1;ratioP1;P1;durP2;ratioP2;P2;SDS_P1;SDS_P2;PMS_P1;PMS_P2;Temp;Humidity;BMP_temperature;BMP_pressure;BME280_temperature;BME280_humidity;BME280_pressure;Samples;Min_cycle;Max_cycle;Signal;HPM_P1;HPM_P2
2022/11/26 00:02:21;;;;;;;109.30;61.30;;;;;;;3.76;94.58;99084.50;418474;1306;99246;-40
2022/11/26 00:12:31;;;;;;;101.70;61.20;;;;;;;3.77;94.65;99090.71;418466;1297;108580;-40
2022/11/26 00:22:42;;;;;;;100.50;58.90;;;;;;;3.73;94.47;99091.17;418577;1298;99236;-41
2022/11/26 00:32:51;;;;;;;99.40;58.60;;;;;;;3.64;94.38;99093.76;418557;1307;111713;-40
2022/11/26 00:42:58;;;;;;;89.50;50.20;;;;;;;3.55;94.39;99097.05;418418;1306;108362;-40
2022/11/26 00:53:12;;;;;;;79.90;45.80;;;;;;;3.51;94.53;99099.77;418478;1306;99158;-40
2022/11/26 01:03:19;;;;;;;74.80;43.90;;;;;;;3.56;94.67;99113.29;418496;1307;108185;-39
2022/11/26 01:13:27;;;;;;;71.30;43.40;;;;;;;3.67;94.81;99120.18;418469;1297;99147;-40
2022/11/26 01:23:35;;;;;;;117.30;58.90;;;;;;;3.64;94.59;99126.27;418624;1298;112123;-41
2022/11/26 01:33:42;;;;;;;117.00;58.60;;;;;;;3.53;94.57;99126.83;418568;1307;109433;-40
2022/11/26 01:43:51;;;;;;;83.80;54.20;;;;;;;3.41;94.36;99127.27;418526;1307;98084;-39
2022/11/26 01:53:59;;;;;;;89.40;53.40;;;;;;;3.34;94.35;99125.73;418475;1307;107275;-39
2022/11/26 02:04:08;;;;;;;81.90;51.00;;;;;;;3.35;94.48;99127.73;418352;1306;99261;-39
2022/11/26 02:14:16;;;;;;;80.40;49.80;;;;;;;3.40;94.56;99134.49;420047;1263;110377;-39
2022/11/26 02:24:27;;;;;;;72.30;45.30;;;;;;;3.45;94.55;99137.76;419664;1295;108164;-42
2022/11/26 02:34:33;;;;;;;85.80;53.70;;;;;;;3.44;94.55;99139.30;419799;1304;99265;-40
2022/11/26 02:44:46;;;;;;;130.70;70.60;;;;;;;3.38;94.56;99135.02;419813;1297;109360;-39
2022/11/26 02:54:52;;;;;;;;;;;;;;;3.22;94.64;99142.77;419935;1295;117286;-40
2022/11/26 03:05:02;;;;;;;129.30;68.70;;;;;;;3.02;94.54;99141.14;419817;1294;111865;-39
2022/11/26 03:15:11;;;;;;;96.60;58.30;;;;;;;2.85;94.31;99144.72;419708;1293;107119;-39
2022/11/26 03:25:18;;;;;;;83.90;53.30;;;;;;;2.75;94.15;99160.41;419772;1294;99214;-38
2022/11/26 03:35:25;;;;;;;86.50;51.40;;;;;;;2.74;94.39;99163.74;419652;1295;107191;-39
2022/11/26 03:45:33;;;;;;;72.50;45.40;;;;;;;2.79;94.50;99163.46;419630;1302;98053;-39
2022/11/26 03:55:40;;;;;;;62.90;41.90;;;;;;;2.83;94.48;99183.48;419568;1294;111951;-39
2022/11/26 04:05:47;;;;;;;63.30;39.50;;;;;;;2.91;94.55;99188.38;419500;1302;108251;-40
2022/11/26 04:15:54;;;;;;;76.40;43.60;;;;;;;2.99;94.71;99196.48;419614;1302;99262;-38
2022/11/26 04:26:02;;;;;;;78.80;42.60;;;;;;;2.90;94.74;99199.89;419531;1303;108398;-39
2022/11/26 04:36:08;;;;;;;59.30;36.40;;;;;;;2.77;94.48;99207.91;419464;1302;99125;-40
2022/11/26 04:46:16;;;;;;;61.40;36.70;;;;;;;2.76;94.40;99222.53;419459;1302;111192;-39
2022/11/26 04:56:24;;;;;;;59.90;35.60;;;;;;;2.83;94.47;99241.45;419399;1304;108312;-39
2022/11/26 05:06:31;;;;;;;50.20;32.90;;;;;;;2.91;94.56;99247.08;419490;1304;99204;-40
2022/11/26 05:16:39;;;;;;;78.80;43.70;;;;;;;2.92;94.44;99249.16;419412;1300;108410;-39
2022/11/26 05:26:47;;;;;;;80.40;44.00;;;;;;;2.83;94.47;99244.40;419595;1293;98867;-40
2022/11/26 05:37:00;;;;;;;61.60;42.80;;;;;;;2.63;94.09;99237.98;419505;1304;113029;-40
2022/11/26 05:47:08;;;;;;;62.20;37.80;;;;;;;2.54;94.09;99246.27;419567;1294;107720;-40
2022/11/26 05:57:15;;;;;;;59.40;40.40;;;;;;;2.61;94.40;99268.04;419455;1294;99168;-40
2022/11/26 06:07:22;;;;;;;67.40;42.90;;;;;;;2.53;94.03;99276.81;419389;1301;107152;-39
2022/11/26 06:17:30;;;;;;;68.10;42.10;;;;;;;2.53;94.21;99280.86;419512;1294;99268;-39
2022/11/26 06:27:38;;;;;;;99.70;55.40;;;;;;;2.52;94.42;99293.13;419569;1303;110881;-39
2022/11/26 06:37:45;;;;;;;101.00;54.90;;;;;;;2.40;94.38;99298.21;419759;1302;107697;-39
2022/11/26 06:47:53;;;;;;;82.00;48.90;;;;;;;2.41;94.37;99307.18;419853;1303;98765;-39
2022/11/26 06:58:00;;;;;;;63.80;40.90;;;;;;;2.52;94.29;99320.44;419727;1294;109498;-39
2022/11/26 07:08:06;;;;;;;71.20;42.90;;;;;;;2.66;94.47;99328.17;419748;1297;98780;-40
2022/11/26 07:18:14;;;;;;;63.40;40.90;;;;;;;2.78;94.40;99339.27;419695;1304;112080;-39
2022/11/26 07:28:21;;;;;;;90.50;49.10;;;;;;;2.91;94.67;99345.68;419759;1302;107135;-39
2022/11/26 07:38:29;;;;;;;96.30;51.50;;;;;;;2.96;94.80;99354.40;419739;1303;99223;-39
2022/11/26 07:48:39;;;;;;;108.50;54.40;;;;;;;2.94;94.72;99360.70;419736;1300;105980;-39
2022/11/26 07:58:44;;;;;;;;;;;;;;;2.95;94.56;99371.77;419770;1302;99254;-40
2022/11/26 08:08:52;;;;;;;100.00;49.70;;;;;;;3.08;94.63;99377.59;419659;1300;111700;-39
2022/11/26 08:19:01;;;;;;;91.60;48.70;;;;;;;3.23;94.72;99383.13;419492;1294;107683;-39
2022/11/26 08:29:09;;;;;;;101.50;53.30;;;;;;;3.34;94.56;99384.81;419470;1305;99280;-38
2022/11/26 08:39:17;;;;;;;108.20;55.90;;;;;;;3.47;94.61;99392.84;419582;1302;107824;-40
2022/11/26 08:49:25;;;;;;;132.50;64.20;;;;;;;3.47;94.72;99396.34;419647;1305;99370;-42
2022/11/26 08:59:32;;;;;;;109.80;51.10;;;;;;;3.51;94.93;99396.46;419636;1301;111276;-41
2022/11/26 09:09:39;;;;;;;102.80;52.20;;;;;;;3.60;94.96;99403.11;419513;1293;108474;-39
2022/11/26 09:19:46;;;;;;;92.60;45.50;;;;;;;3.80;94.84;99416.80;419605;1304;101606;-40
2022/11/26 09:29:54;;;;;;;83.20;45.90;;;;;;;3.98;94.98;99427.02;419601;1294;111711;-39
2022/11/26 09:40:01;;;;;;;82.50;45.70;;;;;;;4.17;95.00;99432.16;419511;1302;107794;-39
2022/11/26 09:50:08;;;;;;;68.10;40.30;;;;;;;4.36;95.25;99432.05;419658;1302;99254;-38
2022/11/26 10:00:22;;;;;;;78.70;43.00;;;;;;;4.60;95.39;99436.77;419653;1307;108225;-38
2022/11/26 10:10:33;;;;;;;88.00;49.20;;;;;;;4.73;95.40;99435.26;419833;1307;101510;-38
2022/11/26 10:20:50;;;;;;;70.40;39.60;;;;;;;4.81;95.54;99439.96;419819;1304;110240;-38
2022/11/26 10:41:03;;;;;;;42.20;25.60;;;;;;;4.83;95.16;99452.10;419830;1301;101503;-40
2022/11/26 10:51:12;;;;;;;51.80;29.90;;;;;;;4.83;95.21;99443.91;419843;1303;107898;-38
2022/11/26 11:01:20;;;;;;;46.10;26.90;;;;;;;4.97;95.36;99440.94;419746;1295;98619;-40
2022/11/26 11:11:30;;;;;;;36.90;21.80;;;;;;;5.16;95.50;99444.23;419466;1303;551709;-40
2022/11/26 11:21:44;;;;;;;109.50;53.20;;;;;;;5.25;95.40;99441.41;419687;1291;108549;-40
2022/11/26 11:31:55;;;;;;;49.00;23.70;;;;;;;5.38;95.77;99447.72;419802;1300;99262;-40
2022/11/26 11:42:00;;;;;;;39.30;20.60;;;;;;;5.26;95.39;99454.94;419747;1304;107134;-39
2022/11/26 11:52:12;;;;;;;36.00;21.10;;;;;;;5.22;95.38;99459.95;419888;1303;99215;-39
2022/11/26 12:02:22;;;;;;;33.00;19.00;;;;;;;5.29;95.44;99467.17;419799;1303;111968;-40
2022/11/26 12:12:34;;;;;;;32.40;19.70;;;;;;;5.31;95.45;99473.30;419649;1293;107543;-39
2022/11/26 12:22:43;;;;;;;28.70;16.90;;;;;;;5.31;95.45;99476.80;419676;1294;99237;-40
2022/11/26 12:32:53;;;;;;;20.30;14.90;;;;;;;5.21;95.42;99491.84;419579;1294;108159;-40
2022/11/26 12:43:02;;;;;;;32.60;19.90;;;;;;;5.09;95.56;99502.14;419834;1291;98045;-40
2022/11/26 12:53:17;;;;;;;42.50;25.70;;;;;;;5.04;95.63;99504.64;419540;1302;112004;-40
2022/11/26 13:03:31;;;;;;;31.20;21.20;;;;;;;5.02;95.56;99509.08;419878;1302;106658;-40
2022/11/26 13:23:46;;;;;;;34.20;19.80;;;;;;;4.89;95.69;99509.77;420913;1301;107423;-40
2022/11/26 13:34:28;;;;;;;40.50;20.80;;;;;;;4.82;95.57;99514.67;420573;1304;99341;-40
2022/11/26 13:44:45;;;;;;;52.40;27.20;;;;;;;4.76;95.73;99527.52;419565;1301;111761;-40
2022/11/26 13:54:56;;;;;;;53.00;27.70;;;;;;;4.81;95.85;99530.59;419848;1302;108481;-39
2022/11/26 14:05:07;;;;;;;55.20;28.60;;;;;;;4.83;95.77;99535.86;419710;1302;98382;-39
2022/11/26 14:15:45;;;;;;;84.80;36.60;;;;;;;4.79;95.96;99546.68;419788;1302;107152;-40
2022/11/26 14:25:53;;;;;;;64.20;32.70;;;;;;;4.72;95.99;99550.80;419750;1294;99236;-39
2022/11/26 14:36:00;;;;;;;76.90;42.20;;;;;;;4.67;95.55;99563.81;419627;1304;111457;-39
2022/11/26 14:46:06;;;;;;;54.60;29.80;;;;;;;4.55;95.48;99578.42;419730;1302;107960;-39
2022/11/26 14:56:14;;;;;;;49.00;27.70;;;;;;;4.49;95.55;99587.73;419779;1300;98835;-39
2022/11/26 15:06:24;;;;;;;55.20;30.10;;;;;;;4.44;95.61;99602.50;419854;1304;108149;-39
2022/11/26 15:16:35;;;;;;;62.80;32.80;;;;;;;4.39;95.52;99611.81;419883;1293;98058;-38
2022/11/26 15:26:45;;;;;;;59.30;30.50;;;;;;;4.33;95.52;99619.45;419685;1296;111471;-38
2022/11/26 15:36:52;;;;;;;62.50;34.90;;;;;;;4.30;95.60;99628.78;419672;1302;107771;-40
2022/11/26 15:47:01;;;;;;;67.60;32.50;;;;;;;4.22;95.65;99639.70;419737;1288;99029;-40
2022/11/26 15:57:18;;;;;;;66.20;33.80;;;;;;;4.06;95.52;99646.71;419746;1300;107920;-38
2022/11/26 16:17:33;;;;;;;50.30;25.90;;;;;;;3.76;95.51;99663.34;419777;1294;111237;-39
2022/11/26 16:27:41;;;;;;;36.80;19.50;;;;;;;3.63;95.43;99673.42;419709;1295;108662;-40
2022/11/26 16:37:55;;;;;;;47.30;22.40;;;;;;;3.47;95.42;99680.46;419812;1295;98062;-39
2022/11/26 16:48:03;;;;;;;63.10;29.10;;;;;;;3.24;95.48;99686.70;419815;1302;107152;-40
2022/11/26 16:58:15;;;;;;;56.00;27.60;;;;;;;3.14;95.33;99700.78;419823;1302;99206;-39
2022/11/26 17:08:23;;;;;;;41.20;23.80;;;;;;;3.06;95.11;99718.99;419686;1295;112012;-39
2022/11/26 17:18:31;;;;;;;46.30;22.50;;;;;;;3.00;95.20;99730.23;419630;1294;108252;-40
2022/11/26 17:28:38;;;;;;;48.70;23.20;;;;;;;2.97;95.22;99732.79;419689;1302;99244;-39
2022/11/26 17:38:47;;;;;;;61.90;28.80;;;;;;;2.88;95.12;99743.15;419698;1295;106598;-40
2022/11/26 17:48:55;;;;;;;74.30;35.20;;;;;;;2.66;95.05;99747.79;419783;1294;118188;-39
2022/11/26 17:59:06;;;;;;;59.50;28.00;;;;;;;2.55;94.98;99752.13;419724;1294;110999;-39
2022/11/26 18:09:12;;;;;;;51.40;24.30;;;;;;;2.55;94.85;99762.44;419743;1302;108086;-40
2022/11/26 18:19:21;;;;;;;52.20;25.40;;;;;;;2.58;95.01;99772.20;419707;1303;99178;-40
2022/11/26 18:29:28;;;;;;;53.00;25.90;;;;;;;2.56;94.83;99780.27;419855;1302;107179;-38
2022/11/26 18:39:36;;;;;;;91.10;43.40;;;;;;;2.31;94.61;99782.86;419882;1294;99246;-40
2022/11/26 18:49:44;;;;;;;63.20;29.30;;;;;;;2.12;94.49;99781.52;419820;1295;110796;-39
2022/11/26 18:59:54;;;;;;;43.50;24.60;;;;;;;2.06;94.44;99793.45;419782;1301;108508;-39
2022/11/26 19:30:16;;;;;;;60.70;30.00;;;;;;;2.12;94.41;99809.20;419752;1303;99241;-38
2022/11/26 19:40:23;;;;;;;65.10;31.80;;;;;;;2.09;94.49;99819.13;419778;1294;112263;-39
2022/11/26 19:50:32;;;;;;;76.30;35.70;;;;;;;1.98;94.22;99823.50;419616;1303;109018;-40
2022/11/26 20:00:38;;;;;;;67.50;33.80;;;;;;;1.93;94.14;99835.55;419684;1302;99236;-39
2022/11/26 20:10:47;;;;;;;59.10;32.10;;;;;;;2.01;94.09;99843.63;419574;1304;107280;-39
2022/11/26 20:31:05;;;;;;;207.70;76.30;;;;;;;2.22;94.35;99851.20;419718;1300;112143;-39
2022/11/26 20:41:16;;;;;;;134.30;57.00;;;;;;;2.16;94.23;99855.48;419660;1294;107683;-40
2022/11/26 20:51:24;;;;;;;124.30;53.50;;;;;;;2.07;94.12;99852.27;419719;1293;99226;-40
2022/11/26 21:01:32;;;;;;;86.50;45.20;;;;;;;2.06;94.02;99853.77;419662;1304;108036;-40
2022/11/26 21:11:40;;;;;;;64.20;34.00;;;;;;;2.10;94.00;99861.98;419516;1304;99354;-39
2022/11/26 21:21:46;;;;;;;57.30;29.70;;;;;;;2.20;94.21;99866.91;419526;1293;110848;-39
2022/11/26 21:31:52;;;;;;;57.20;30.10;;;;;;;2.28;94.22;99865.62;419446;1287;108557;-39
2022/11/26 21:41:59;;;;;;;70.30;37.90;;;;;;;2.29;94.04;99874.59;419607;1304;98856;-39
2022/11/26 21:52:06;;;;;;;71.40;37.20;;;;;;;2.27;94.14;99866.95;419534;1302;108643;-40
2022/11/26 22:02:12;;;;;;;80.50;37.60;;;;;;;2.15;94.01;99863.20;419726;1287;98819;-39
2022/11/26 22:12:20;;;;;;;82.60;39.10;;;;;;;2.02;94.03;99872.61;419947;1294;111296;-39
2022/11/26 22:22:28;;;;;;;65.10;36.20;;;;;;;1.97;93.89;99870.15;419810;1302;107741;-39
2022/11/26 22:32:36;;;;;;;62.00;33.80;;;;;;;2.01;93.97;99861.81;419668;1303;98034;-39
2022/11/26 22:42:43;;;;;;;66.40;35.20;;;;;;;2.07;93.95;99863.59;419657;1294;111887;-40
2022/11/26 22:52:51;;;;;;;65.90;34.20;;;;;;;2.24;94.16;99863.59;419770;1299;107246;-39
2022/11/26 23:02:58;;;;;;;91.50;40.50;;;;;;;2.23;93.95;99857.27;419771;1295;99229;-38
2022/11/26 23:13:07;;;;;;;106.70;54.90;;;;;;;2.16;94.13;99856.03;419484;1304;477371;-40
2022/11/26 23:23:14;;;;;;;93.60;43.40;;;;;;;2.09;94.18;99856.33;419807;1302;98834;-39
2022/11/26 23:33:22;;;;;;;96.30;45.10;;;;;;;2.07;94.04;99855.95;419600;1294;110803;-40
2022/11/26 23:43:31;;;;;;;77.80;38.60;;;;;;;2.07;93.92;99862.55;419539;1303;108267;-42
2022/11/26 23:53:40;;;;;;;90.50;41.60;;;;;;;2.11;94.08;99859.41;419584;1294;99255;-39
